Terminal Aerodrome Forecast
Issued by NWS Twin Cities, MN

Home | Current Version | Previous Version | Text Only | Print | Product List | Glossary Off
Versions: 1 2 3 4 5 6 7 8 9 10 11 12 13 14 15 16 17 18 19 20 21 22 23 24 25 26 27 28 29 30 31

000
FTUS43 KMPX 261800 AAA
TAFMSP
TAF AMD
KMSP 261820Z 2618/2724 01008KT 3SM -SN BR SCT015 OVC025
      TEMPO 2619/2621 1 1/2SM -SN BKN015 OVC030
     FM262100 36011KT 6SM -SN BKN018 OVC025
     FM262200 33011G18KT P6SM BKN025
     FM270400 32010KT P6SM SCT035
     FM271500 31004KT P6SM SCT250=

USA.gov is the U.S. government's official web portal to all federal, state and local government web resources and services.